Time;durP1;ratioP1;P1;durP2;ratioP2;P2;SDS_P1;SDS_P2;PMS_P1;PMS_P2;Temp;Humidity;BMP_temperature;BMP_pressure;BME280_temperature;BME280_humidity;BME280_pressure;Samples;Min_cycle;Max_cycle;Signal;HPM_P1;HPM_P2
2022/11/15 00:02:18;;;;;;;23.42;14.65;;;8.00;99.90;;;;;;4997015;28;20116;-47
2022/11/15 00:04:43;;;;;;;22.27;14.20;;;8.00;99.90;;;;;;4996288;28;20379;-47
2022/11/15 00:07:09;;;;;;;20.85;13.45;;;7.90;99.90;;;;;;4997963;28;20026;-48
2022/11/15 00:09:34;;;;;;;21.40;14.15;;;7.90;99.90;;;;;;4997662;28;20030;-47
2022/11/15 00:12:00;;;;;;;18.88;12.18;;;7.90;99.90;;;;;;4995207;28;20524;-50
2022/11/15 00:14:29;;;;;;;19.70;12.90;;;7.80;99.90;;;;;;4994489;28;20022;-48
2022/11/15 00:16:57;;;;;;;18.67;13.10;;;7.80;99.90;;;;;;4995978;28;20487;-51
2022/11/15 00:19:26;;;;;;;25.00;14.90;;;7.70;99.90;;;;;;4994459;28;20029;-49
2022/11/15 00:21:52;;;;;;;21.00;14.85;;;7.70;99.90;;;;;;4996879;28;20065;-48
2022/11/15 00:24:18;;;;;;;22.88;13.95;;;7.70;99.90;;;;;;4994372;28;20080;-51
2022/11/15 00:26:44;;;;;;;25.88;14.93;;;7.70;99.90;;;;;;4993265;28;20397;-48
2022/11/15 00:29:10;;;;;;;21.88;14.10;;;7.70;99.90;;;;;;4994282;28;20018;-47
2022/11/15 00:31:35;;;;;;;20.23;13.32;;;7.70;99.90;;;;;;4996882;28;20355;-49
2022/11/15 00:34:00;;;;;;;23.10;14.65;;;7.70;99.90;;;;;;4995132;28;20031;-47
2022/11/15 00:36:26;;;;;;;21.38;14.23;;;7.60;99.90;;;;;;4995680;28;20356;-50
2022/11/15 00:38:53;;;;;;;22.88;15.07;;;7.60;99.90;;;;;;4992913;28;20439;-47
2022/11/15 00:41:24;;;;;;;21.95;14.05;;;7.60;99.90;;;;;;4994925;28;20117;-48
2022/11/15 00:43:50;;;;;;;24.30;14.18;;;7.60;99.90;;;;;;4994108;28;20026;-47
2022/11/15 00:46:16;;;;;;;19.52;13.88;;;7.50;99.90;;;;;;4997227;28;20029;-47
2022/11/15 00:48:45;;;;;;;24.85;14.60;;;7.50;99.90;;;;;;4994325;28;20028;-50
2022/11/15 00:51:11;;;;;;;27.50;15.48;;;7.40;99.90;;;;;;4996776;28;20018;-47
2022/11/15 00:53:37;;;;;;;20.98;13.70;;;7.40;99.90;;;;;;4996396;28;20029;-47
2022/11/15 00:56:03;;;;;;;21.92;15.02;;;7.40;99.90;;;;;;4995761;28;20029;-48
2022/11/15 00:58:29;;;;;;;23.33;14.50;;;7.40;99.90;;;;;;4996238;28;20407;-48
2022/11/15 01:00:55;;;;;;;20.40;14.25;;;7.40;99.90;;;;;;4993288;28;20022;-49
2022/11/15 01:03:20;;;;;;;22.10;14.77;;;7.40;99.90;;;;;;4992326;28;20025;-48
2022/11/15 01:05:46;;;;;;;25.35;14.93;;;7.40;99.90;;;;;;4992135;28;20018;-47
2022/11/15 01:08:13;;;;;;;22.60;14.10;;;7.30;99.90;;;;;;4987701;28;20019;-47
2022/11/15 01:10:39;;;;;;;23.95;14.30;;;7.30;99.90;;;;;;4996390;28;20368;-47
2022/11/15 01:13:04;;;;;;;24.02;14.27;;;7.30;99.90;;;;;;4992208;28;20120;-48
2022/11/15 01:15:30;;;;;;;21.35;14.20;;;7.30;99.90;;;;;;4992185;28;20080;-46
2022/11/15 01:17:55;;;;;;;22.70;14.00;;;7.20;99.90;;;;;;4994498;28;20091;-46
2022/11/15 01:20:21;;;;;;;26.20;15.02;;;7.20;99.90;;;;;;4996640;28;20093;-46
2022/11/15 01:22:46;;;;;;;21.63;13.68;;;7.20;99.90;;;;;;4996540;28;20022;-47
2022/11/15 01:25:12;;;;;;;20.08;13.20;;;7.20;99.90;;;;;;4999368;28;20390;-46
2022/11/15 01:27:37;;;;;;;21.77;14.20;;;7.10;99.90;;;;;;5003073;28;20022;-47
2022/11/15 01:30:04;;;;;;;24.15;15.63;;;7.10;99.90;;;;;;4997280;28;20087;-47
2022/11/15 01:32:29;;;;;;;22.17;13.73;;;7.10;99.90;;;;;;4995933;28;20018;-47
2022/11/15 01:34:55;;;;;;;23.98;15.90;;;7.10;99.90;;;;;;4997663;28;20478;-46
2022/11/15 01:37:20;;;;;;;23.80;15.10;;;7.10;99.90;;;;;;4996902;28;20030;-46
2022/11/15 01:39:45;;;;;;;23.40;14.60;;;7.10;99.90;;;;;;5001259;28;20089;-47
2022/11/15 01:42:14;;;;;;;26.60;15.70;;;7.10;99.90;;;;;;4992213;28;20088;-46
2022/11/15 01:44:41;;;;;;;26.25;16.40;;;7.10;99.90;;;;;;4999063;28;20036;-46
2022/11/15 01:47:32;;;;;;;26.20;16.27;;;7.10;99.90;;;;;;4996232;28;20025;-47
2022/11/15 01:50:04;;;;;;;24.77;14.65;;;7.10;99.90;;;;;;4996209;28;20403;-47
2022/11/15 01:52:32;;;;;;;23.13;15.00;;;7.00;99.90;;;;;;4996770;28;20026;-50
2022/11/15 01:55:13;;;;;;;27.70;14.80;;;7.10;99.90;;;;;;5000389;28;20537;-47
2022/11/15 01:57:42;;;;;;;24.08;14.50;;;7.00;99.90;;;;;;4999564;28;20018;-46
2022/11/15 02:00:08;;;;;;;23.48;13.90;;;6.90;99.90;;;;;;4997452;28;20034;-46
2022/11/15 02:02:36;;;;;;;20.20;12.68;;;6.90;99.90;;;;;;4999251;28;20022;-48
2022/11/15 02:05:02;;;;;;;20.38;12.77;;;6.90;99.90;;;;;;4996985;28;20101;-47
2022/11/15 02:07:29;;;;;;;21.40;13.52;;;6.80;99.90;;;;;;4997749;28;20037;-47
2022/11/15 02:09:55;;;;;;;24.40;13.90;;;6.80;99.90;;;;;;4996368;28;20022;-46
2022/11/15 02:12:22;;;;;;;20.17;13.23;;;6.70;99.90;;;;;;4998705;28;20014;-47
2022/11/15 02:14:53;;;;;;;20.63;13.32;;;6.60;99.90;;;;;;4995728;28;20022;-47
2022/11/15 02:17:51;;;;;;;;;;;6.50;99.90;;;;;;4997376;28;20071;-49
2022/11/15 02:20:23;;;;;;;32.13;19.80;;;6.50;99.90;;;;;;4996961;28;19914;-47
2022/11/15 02:23:03;;;;;;;25.40;15.32;;;6.60;99.90;;;;;;4999622;28;20593;-46
2022/11/15 02:25:47;;;;;;;27.73;14.85;;;6.60;99.90;;;;;;4997421;28;20118;-47
2022/11/15 02:28:32;;;;;;;26.50;15.60;;;6.60;99.90;;;;;;5001796;28;20022;-47
2022/11/15 02:31:09;;;;;;;24.08;14.75;;;6.60;99.90;;;;;;4998888;28;20025;-47
2022/11/15 02:33:53;;;;;;;21.90;14.85;;;6.60;99.90;;;;;;4994990;28;20268;-47
2022/11/15 02:36:41;;;;;;;24.00;15.70;;;6.50;99.90;;;;;;4998098;28;20030;-48
2022/11/15 02:39:44;;;;;;;25.70;15.13;;;6.60;99.90;;;;;;4995272;28;20058;-47
2022/11/15 02:45:35;;;;;;;23.25;14.77;;;6.50;99.90;;;;;;5044411;28;20107;-47
2022/11/15 02:48:03;;;;;;;24.92;14.98;;;6.50;99.90;;;;;;5000163;28;20034;-47
2022/11/15 02:50:31;;;;;;;25.52;15.75;;;6.50;99.90;;;;;;4998405;28;20386;-47
2022/11/15 02:52:57;;;;;;;25.17;14.65;;;6.50;99.90;;;;;;4999853;28;20022;-47
2022/11/15 02:55:43;;;;;;;23.50;14.57;;;6.50;99.90;;;;;;4998563;28;20112;-46
2022/11/15 02:58:25;;;;;;;29.52;14.70;;;6.40;99.90;;;;;;4995148;28;20026;-46
2022/11/15 03:01:08;;;;;;;23.80;14.90;;;6.40;99.90;;;;;;4995729;28;20410;-48
2022/11/15 03:04:16;;;;;;;25.30;16.08;;;6.30;99.90;;;;;;4997842;28;20030;-47
2022/11/15 03:06:53;;;;;;;28.42;17.33;;;6.30;99.90;;;;;;4995935;28;20015;-46
2022/11/15 03:09:37;;;;;;;27.25;15.60;;;6.20;99.90;;;;;;4993106;28;20260;-46
2022/11/15 03:12:18;;;;;;;30.23;16.75;;;6.20;99.90;;;;;;4999867;28;20018;-49
2022/11/15 03:14:57;;;;;;;26.05;16.48;;;6.10;99.90;;;;;;4997560;28;20026;-47
2022/11/15 03:17:30;;;;;;;29.20;15.35;;;6.10;99.90;;;;;;5000055;28;20072;-48
2022/11/15 03:19:59;;;;;;;29.23;17.15;;;6.00;99.90;;;;;;4997773;28;20167;-46
2022/11/15 03:22:28;;;;;;;27.77;15.95;;;6.00;99.90;;;;;;4980067;28;20033;-49
2022/11/15 03:25:01;;;;;;;28.53;16.57;;;5.90;99.90;;;;;;4995146;28;20017;-49
2022/11/15 03:27:33;;;;;;;26.00;15.45;;;5.90;99.90;;;;;;4997846;28;20106;-46
2022/11/15 03:30:03;;;;;;;27.85;17.63;;;5.90;99.90;;;;;;4994123;28;20022;-49
2022/11/15 03:32:34;;;;;;;27.50;15.90;;;5.90;99.90;;;;;;4995591;28;20022;-50
2022/11/15 03:35:16;;;;;;;25.77;15.32;;;5.80;99.90;;;;;;4996564;28;20281;-50
2022/11/15 03:37:54;;;;;;;29.25;16.80;;;5.80;99.90;;;;;;4995738;28;20030;-47
2022/11/15 03:40:38;;;;;;;28.90;16.92;;;5.80;99.90;;;;;;4996189;28;20138;-48
2022/11/15 03:43:10;;;;;;;28.02;17.15;;;5.80;99.90;;;;;;4993993;28;20512;-47
2022/11/15 03:46:04;;;;;;;32.80;18.48;;;5.80;99.90;;;;;;4996694;28;20022;-47
2022/11/15 03:48:53;;;;;;;28.77;17.30;;;5.80;99.90;;;;;;4994699;28;20478;-51
2022/11/15 03:51:19;;;;;;;28.52;16.05;;;5.70;99.90;;;;;;4994716;28;20122;-47
2022/11/15 03:53:46;;;;;;;30.92;17.95;;;5.70;99.90;;;;;;4995400;28;20049;-47
2022/11/15 03:56:12;;;;;;;24.10;15.80;;;5.70;99.90;;;;;;4995165;28;20053;-47
2022/11/15 03:58:37;;;;;;;27.92;16.55;;;5.70;99.90;;;;;;4997599;28;20492;-47
2022/11/15 04:01:03;;;;;;;29.55;17.25;;;5.70;99.90;;;;;;4997880;28;20109;-47
2022/11/15 04:03:29;;;;;;;30.58;17.60;;;5.70;99.90;;;;;;4996881;28;20130;-47
2022/11/15 04:05:55;;;;;;;29.90;16.80;;;5.60;99.90;;;;;;4995920;28;20033;-47
2022/11/15 04:08:22;;;;;;;25.30;15.55;;;5.70;99.90;;;;;;4995182;28;20161;-47
2022/11/15 04:10:52;;;;;;;25.33;16.10;;;5.60;99.90;;;;;;4994028;28;20108;-47
2022/11/15 04:13:17;;;;;;;28.05;16.65;;;5.70;99.90;;;;;;4994707;28;20018;-46
2022/11/15 04:15:43;;;;;;;31.65;17.55;;;5.70;99.90;;;;;;4993783;28;20026;-47
2022/11/15 04:18:08;;;;;;;26.15;15.18;;;5.70;99.90;;;;;;4996322;28;20091;-46
2022/11/15 04:26:11;;;;;;;22.65;12.98;;;5.60;99.90;;;;;;4999926;28;20159;-46
2022/11/15 04:29:34;;;;;;;25.42;15.68;;;5.50;99.90;;;;;;4998004;28;20452;-47
2022/11/15 04:31:27;;;;;;;21.98;13.35;;;5.50;99.90;;;;;;4996589;28;20037;-48
2022/11/15 04:33:53;;;;;;;24.23;15.18;;;5.40;99.90;;;;;;4989550;28;20033;-46
2022/11/15 04:39:03;;;;;;;23.10;14.07;;;5.40;99.90;;;;;;4986689;28;20033;-46
2022/11/15 04:41:29;;;;;;;23.23;14.55;;;5.40;99.90;;;;;;4986138;28;20461;-46
2022/11/15 04:43:55;;;;;;;23.55;14.63;;;5.40;99.90;;;;;;4986557;28;20033;-45
2022/11/15 04:46:23;;;;;;;22.63;13.90;;;5.40;99.90;;;;;;4985342;28;20022;-46
2022/11/15 04:48:49;;;;;;;22.33;13.45;;;5.40;99.90;;;;;;4985154;28;20022;-46
2022/11/15 04:51:16;;;;;;;20.02;12.85;;;5.40;99.90;;;;;;4986055;28;20224;-45
2022/11/15 04:53:41;;;;;;;26.50;15.63;;;5.30;99.90;;;;;;4985087;28;20068;-47
2022/11/15 04:56:07;;;;;;;23.52;14.65;;;5.40;99.90;;;;;;4985831;28;20279;-45
2022/11/15 04:58:32;;;;;;;22.73;14.05;;;5.40;99.90;;;;;;4990111;28;20034;-46
2022/11/15 05:00:58;;;;;;;27.38;16.13;;;5.30;99.90;;;;;;4989778;28;20075;-45
2022/11/15 05:06:07;;;;;;;23.65;14.85;;;5.30;99.90;;;;;;4990040;28;20083;-47
2022/11/15 05:08:33;;;;;;;26.15;15.45;;;5.30;99.90;;;;;;4994449;28;20022;-46
2022/11/15 05:10:59;;;;;;;32.78;18.75;;;5.30;99.90;;;;;;5009793;28;20538;-46
2022/11/15 05:13:25;;;;;;;32.25;17.55;;;5.40;99.90;;;;;;5007677;28;20057;-46
2022/11/15 05:15:50;;;;;;;36.50;18.75;;;5.40;99.90;;;;;;5009238;28;20025;-46
2022/11/15 05:18:16;;;;;;;32.00;18.02;;;5.40;99.90;;;;;;5007817;28;20037;-46
2022/11/15 05:20:43;;;;;;;32.20;19.48;;;5.50;99.90;;;;;;5008025;28;20383;-46
2022/11/15 05:23:08;;;;;;;27.95;16.85;;;5.60;99.90;;;;;;5008608;28;20034;-45
2022/11/15 05:25:36;;;;;;;28.27;16.73;;;5.60;99.90;;;;;;5008928;28;20036;-46
2022/11/15 05:28:02;;;;;;;31.77;16.80;;;5.60;99.90;;;;;;5008740;28;20101;-46
2022/11/15 05:30:27;;;;;;;30.90;17.58;;;5.60;99.90;;;;;;5008680;28;20358;-46
2022/11/15 05:32:53;;;;;;;28.10;16.48;;;5.70;99.90;;;;;;5008421;28;20161;-46
2022/11/15 05:35:29;;;;;;;24.98;14.93;;;5.70;99.90;;;;;;5008643;28;20026;-46
2022/11/15 05:37:55;;;;;;;25.85;15.20;;;5.70;99.90;;;;;;5008503;28;20026;-45
2022/11/15 05:40:21;;;;;;;24.75;14.27;;;5.70;99.90;;;;;;5008506;28;20030;-46
2022/11/15 05:42:47;;;;;;;26.95;16.13;;;5.70;99.90;;;;;;5007253;28;20029;-46
2022/11/15 05:45:12;;;;;;;25.98;14.50;;;5.70;99.90;;;;;;5008764;28;20034;-46
2022/11/15 05:47:39;;;;;;;27.88;14.95;;;5.70;99.90;;;;;;5008548;28;20105;-45
2022/11/15 05:50:05;;;;;;;24.83;14.60;;;5.70;99.90;;;;;;5008597;28;20293;-50
2022/11/15 05:52:35;;;;;;;23.95;15.15;;;5.70;99.90;;;;;;5008226;28;20531;-47
2022/11/15 05:55:02;;;;;;;24.42;14.43;;;5.70;99.90;;;;;;5008592;28;20123;-46
2022/11/15 05:57:28;;;;;;;22.17;13.18;;;5.70;99.90;;;;;;5008451;28;20065;-47
2022/11/15 05:59:55;;;;;;;24.73;14.63;;;5.70;99.90;;;;;;5008816;28;20080;-45
2022/11/15 06:02:20;;;;;;;28.23;14.93;;;5.60;99.90;;;;;;5008054;28;20105;-46
2022/11/15 06:04:47;;;;;;;27.00;14.82;;;5.60;99.90;;;;;;5008280;28;20750;-46
2022/11/15 06:07:12;;;;;;;28.23;15.00;;;5.60;99.90;;;;;;5006739;28;20022;-46
2022/11/15 06:09:39;;;;;;;28.02;15.85;;;5.70;99.90;;;;;;5008622;28;20030;-46
2022/11/15 06:12:04;;;;;;;21.88;14.00;;;5.70;99.90;;;;;;5006479;28;20025;-45
2022/11/15 06:14:32;;;;;;;23.65;13.75;;;5.80;99.90;;;;;;5008170;28;20040;-46
2022/11/15 06:16:58;;;;;;;28.20;15.98;;;5.90;99.90;;;;;;5008165;28;20033;-47
2022/11/15 06:19:24;;;;;;;26.13;14.82;;;5.90;99.90;;;;;;5007014;28;20390;-46
2022/11/15 06:21:49;;;;;;;28.08;15.88;;;6.10;99.90;;;;;;5007733;28;20032;-45
2022/11/15 06:24:15;;;;;;;23.77;14.27;;;6.20;99.90;;;;;;5007857;28;20692;-47
2022/11/15 06:26:41;;;;;;;23.20;15.00;;;6.20;99.90;;;;;;5008120;28;20056;-46
2022/11/15 06:29:07;;;;;;;23.65;14.50;;;6.30;99.90;;;;;;5006845;28;20064;-46
2022/11/15 06:31:37;;;;;;;21.33;12.38;;;6.30;99.90;;;;;;5005934;28;20687;-46
2022/11/15 06:34:05;;;;;;;15.67;10.57;;;6.20;99.90;;;;;;5008001;28;20061;-47
2022/11/15 06:36:33;;;;;;;17.08;10.98;;;6.10;99.90;;;;;;5007892;28;20021;-46
2022/11/15 06:38:59;;;;;;;17.80;11.05;;;6.00;99.90;;;;;;5008335;28;20068;-47
2022/11/15 06:41:27;;;;;;;20.85;11.73;;;6.00;99.90;;;;;;5007402;28;20435;-46
2022/11/15 06:43:56;;;;;;;21.58;11.90;;;5.90;99.90;;;;;;5017897;28;20046;-46
2022/11/15 06:46:22;;;;;;;19.83;12.00;;;5.90;99.90;;;;;;5029544;28;20059;-46
2022/11/15 06:48:49;;;;;;;17.27;11.15;;;5.90;99.90;;;;;;5025918;28;20053;-46
2022/11/15 06:51:18;;;;;;;19.33;13.05;;;5.90;99.90;;;;;;5006085;28;20098;-48
2022/11/15 06:53:44;;;;;;;19.92;12.18;;;5.90;99.90;;;;;;5003441;28;20037;-46
2022/11/15 06:56:12;;;;;;;20.17;11.95;;;6.00;99.90;;;;;;4996864;28;20041;-49
2022/11/15 06:58:39;;;;;;;20.65;12.57;;;6.00;99.90;;;;;;4995959;28;20341;-49
2022/11/15 07:01:10;;;;;;;22.00;13.65;;;6.00;99.90;;;;;;4988453;28;20030;-47
2022/11/15 07:03:38;;;;;;;26.35;15.38;;;6.10;99.90;;;;;;5010722;28;20053;-46
2022/11/15 07:06:04;;;;;;;27.85;15.40;;;6.10;99.90;;;;;;5005754;28;20026;-46
2022/11/15 07:08:30;;;;;;;31.92;15.65;;;6.20;99.90;;;;;;4993773;28;20018;-46
2022/11/15 07:11:01;;;;;;;28.75;15.73;;;6.20;99.90;;;;;;5005898;28;20018;-47
2022/11/15 07:13:29;;;;;;;26.63;14.57;;;6.30;99.90;;;;;;5107318;28;20480;-46
2022/11/15 07:15:55;;;;;;;26.20;16.00;;;6.40;99.90;;;;;;5109250;28;20031;-45
2022/11/15 07:18:20;;;;;;;22.42;13.52;;;6.50;99.90;;;;;;5065044;28;20463;-44
2022/11/15 07:20:46;;;;;;;25.17;14.15;;;6.60;99.90;;;;;;5006666;28;20101;-45
2022/11/15 07:23:12;;;;;;;26.05;13.85;;;6.60;99.90;;;;;;5006962;28;20034;-45
2022/11/15 07:25:37;;;;;;;36.17;16.63;;;6.60;99.90;;;;;;5006617;28;20061;-46
2022/11/15 07:28:03;;;;;;;24.15;14.10;;;6.70;99.90;;;;;;5006915;28;20276;-45
2022/11/15 07:30:30;;;;;;;25.48;14.20;;;6.70;99.90;;;;;;5007446;28;20056;-47
2022/11/15 07:33:00;;;;;;;21.13;14.02;;;6.80;99.90;;;;;;5005317;28;20033;-47
2022/11/15 07:35:27;;;;;;;26.07;14.57;;;6.90;99.90;;;;;;5005733;28;20029;-46
2022/11/15 07:37:58;;;;;;;21.80;13.15;;;6.90;99.90;;;;;;5005731;28;20040;-45
2022/11/15 07:40:25;;;;;;;22.83;13.07;;;7.00;99.90;;;;;;5007044;28;20163;-45
2022/11/15 07:42:54;;;;;;;25.98;13.20;;;7.10;99.90;;;;;;5006804;28;20279;-48
2022/11/15 07:45:21;;;;;;;20.02;11.65;;;7.30;99.90;;;;;;5002375;28;20030;-45
2022/11/15 07:47:48;;;;;;;20.15;11.52;;;7.50;99.90;;;;;;5001517;28;20157;-45
2022/11/15 07:50:14;;;;;;;17.92;11.20;;;7.70;99.90;;;;;;4988983;28;20473;-45
2022/11/15 07:52:39;;;;;;;16.88;11.02;;;7.80;99.90;;;;;;4996474;28;20104;-45
2022/11/15 07:55:06;;;;;;;19.20;11.85;;;8.10;99.90;;;;;;4996097;28;20041;-45
2022/11/15 07:57:32;;;;;;;15.30;10.15;;;8.20;99.90;;;;;;5000034;28;20494;-46
2022/11/15 07:59:57;;;;;;;17.10;10.55;;;8.30;99.90;;;;;;5005014;28;20033;-46
2022/11/15 08:02:23;;;;;;;16.42;10.45;;;8.30;99.90;;;;;;5005021;28;20183;-46
2022/11/15 08:04:48;;;;;;;14.52;10.10;;;8.40;99.90;;;;;;4988723;28;20113;-45
2022/11/15 08:07:14;;;;;;;17.38;10.20;;;8.50;99.90;;;;;;4985949;28;20395;-45
2022/11/15 08:09:40;;;;;;;12.13;9.45;;;8.50;99.90;;;;;;4993084;28;20497;-47
2022/11/15 08:12:07;;;;;;;17.02;9.48;;;8.50;99.90;;;;;;5003901;28;20483;-45
2022/11/15 08:14:32;;;;;;;13.52;8.48;;;8.60;99.90;;;;;;5005651;28;20117;-45
2022/11/15 08:16:58;;;;;;;10.52;7.97;;;8.70;99.90;;;;;;5006458;28;20113;-46
2022/11/15 08:19:24;;;;;;;12.43;8.68;;;8.70;99.90;;;;;;5004868;28;20030;-45
2022/11/15 08:21:49;;;;;;;16.38;8.52;;;8.80;99.90;;;;;;5005022;28;20038;-45
2022/11/15 08:24:15;;;;;;;14.15;8.82;;;8.90;99.90;;;;;;5004440;28;20179;-45
2022/11/15 08:26:41;;;;;;;14.20;9.75;;;9.00;99.90;;;;;;5005097;28;20109;-40
2022/11/15 08:29:09;;;;;;;15.18;9.60;;;9.10;99.90;;;;;;5004425;28;20054;-40
2022/11/15 08:31:41;;;;;;;19.05;9.27;;;9.20;99.90;;;;;;5002647;28;20534;-40
2022/11/15 08:34:07;;;;;;;12.23;8.55;;;9.40;99.90;;;;;;4997930;28;20033;-40
2022/11/15 08:36:33;;;;;;;12.25;9.30;;;9.40;99.90;;;;;;4996922;28;20026;-40
2022/11/15 08:38:59;;;;;;;13.90;8.65;;;9.60;99.90;;;;;;5002146;28;20521;-40
2022/11/15 08:41:35;;;;;;;12.65;8.48;;;9.80;99.90;;;;;;5008293;28;20026;-40
2022/11/15 08:44:01;;;;;;;191.82;103.57;;;10.00;99.90;;;;;;5009038;28;20021;-40
2022/11/15 08:46:27;;;;;;;36.13;19.38;;;10.10;99.90;;;;;;5009212;28;20087;-40
2022/11/15 08:48:52;;;;;;;14.05;9.05;;;10.30;99.90;;;;;;5009276;28;20026;-40
2022/11/15 08:51:18;;;;;;;9.80;7.35;;;10.40;99.90;;;;;;5008766;28;20026;-40
2022/11/15 08:53:44;;;;;;;8.77;6.82;;;10.50;99.90;;;;;;4993954;28;20026;-40
2022/11/15 08:56:12;;;;;;;12.07;7.45;;;10.60;99.90;;;;;;4998971;28;20026;-40
2022/11/15 08:58:39;;;;;;;11.50;6.45;;;10.80;99.90;;;;;;5000025;28;20030;-40
2022/11/15 09:01:05;;;;;;;11.20;6.60;;;11.00;99.90;;;;;;4995331;28;20105;-40
2022/11/15 09:03:31;;;;;;;9.57;5.80;;;11.10;99.90;;;;;;4993213;28;20056;-40
2022/11/15 09:05:58;;;;;;;12.35;6.85;;;11.20;99.90;;;;;;5007900;28;20487;-40
2022/11/15 09:08:25;;;;;;;10.20;6.28;;;11.30;99.90;;;;;;5000152;28;20025;-40
2022/11/15 09:10:51;;;;;;;9.82;7.18;;;11.40;99.90;;;;;;4998215;28;20033;-40
2022/11/15 09:13:17;;;;;;;8.82;7.07;;;11.50;99.90;;;;;;4991263;28;20026;-41
2022/11/15 09:15:42;;;;;;;16.00;8.00;;;11.50;99.90;;;;;;4988359;28;20506;-40
2022/11/15 09:18:08;;;;;;;11.65;7.78;;;11.60;99.90;;;;;;4998743;28;20037;-40
2022/11/15 09:20:34;;;;;;;19.17;9.02;;;11.60;99.90;;;;;;5008749;28;20053;-40
2022/11/15 09:23:01;;;;;;;11.73;8.15;;;11.70;99.90;;;;;;5008426;28;20390;-40
2022/11/15 09:25:27;;;;;;;12.35;8.20;;;11.80;99.90;;;;;;5007253;28;20018;-40
2022/11/15 09:27:53;;;;;;;11.00;7.78;;;11.90;99.90;;;;;;5007198;28;20132;-40
2022/11/15 09:30:18;;;;;;;12.15;7.65;;;11.90;99.90;;;;;;5006701;28;20116;-40
2022/11/15 09:32:44;;;;;;;11.30;7.22;;;12.00;99.90;;;;;;5004324;28;20047;-40
2022/11/15 09:35:09;;;;;;;11.43;7.00;;;12.00;99.90;;;;;;5007054;28;20040;-40
2022/11/15 09:37:35;;;;;;;8.57;6.13;;;12.10;99.90;;;;;;5008239;28;20030;-41
2022/11/15 09:40:02;;;;;;;11.32;6.07;;;12.10;99.90;;;;;;5007178;28;20416;-41
2022/11/15 09:42:40;;;;;;;8.27;6.07;;;12.10;99.90;;;;;;4987850;28;20034;-40
2022/11/15 09:45:22;;;;;;;11.32;6.25;;;12.30;99.90;;;;;;4997251;28;20021;-40
2022/11/15 09:48:09;;;;;;;7.97;6.00;;;12.30;99.90;;;;;;5007610;28;20021;-41
2022/11/15 09:50:46;;;;;;;6.75;5.78;;;12.30;99.90;;;;;;5006828;28;20508;-41
2022/11/15 09:53:22;;;;;;;8.27;6.40;;;12.50;99.90;;;;;;5000019;28;20390;-41
2022/11/15 09:56:01;;;;;;;7.65;5.35;;;12.70;99.90;;;;;;4997024;28;20101;-41
2022/11/15 09:58:45;;;;;;;8.60;6.18;;;12.80;99.90;;;;;;4995970;28;20019;-41
2022/11/15 10:01:19;;;;;;;7.70;5.57;;;13.20;99.90;;;;;;4979207;28;20034;-41
2022/11/15 10:03:45;;;;;;;8.75;5.80;;;13.80;99.90;;;;;;4997288;28;20030;-41
2022/11/15 10:06:23;;;;;;;9.15;5.75;;;14.30;99.90;;;;;;4999232;28;20022;-42
2022/11/15 10:09:14;;;;;;;9.48;6.70;;;14.70;99.90;;;;;;5006332;28;20026;-41
2022/11/15 10:11:41;;;;;;;7.57;5.28;;;15.30;99.90;;;;;;5005552;28;20061;-39
2022/11/15 10:14:20;;;;;;;8.43;5.10;;;15.90;99.90;;;;;;5006619;28;20117;-40
2022/11/15 10:16:46;;;;;;;26.20;16.63;;;16.50;99.90;;;;;;4992209;28;20068;-39
2022/11/15 10:19:43;;;;;;;59.97;38.42;;;16.70;99.90;;;;;;4991366;28;20065;-39
2022/11/15 10:22:29;;;;;;;15.77;10.48;;;16.90;99.90;;;;;;5005610;28;20045;-40
2022/11/15 10:25:12;;;;;;;13.68;6.30;;;17.00;99.90;;;;;;4991686;28;20034;-40
2022/11/15 10:27:39;;;;;;;8.07;5.90;;;17.40;99.90;;;;;;5005342;28;20433;-40
2022/11/15 10:30:16;;;;;;;6.55;5.10;;;18.10;99.90;;;;;;5004224;28;20056;-40
2022/11/15 10:32:44;;;;;;;8.18;5.57;;;18.60;99.90;;;;;;4994492;28;20022;-47
2022/11/15 10:35:24;;;;;;;7.55;5.35;;;19.50;98.50;;;;;;4995828;28;20507;-42
2022/11/15 10:37:50;;;;;;;7.70;5.13;;;20.30;97.10;;;;;;4995226;28;20030;-41
2022/11/15 10:40:17;;;;;;;6.22;4.75;;;21.30;94.20;;;;;;4995304;28;20702;-39
2022/11/15 10:42:43;;;;;;;7.22;4.40;;;21.60;92.70;;;;;;4994858;28;20510;-40
2022/11/15 10:45:28;;;;;;;5.38;4.30;;;22.60;90.90;;;;;;4994066;28;20042;-41
2022/11/15 10:48:12;;;;;;;5.78;4.25;;;22.70;89.30;;;;;;4994967;28;20018;-41
2022/11/15 10:50:40;;;;;;;7.57;4.07;;;23.40;86.60;;;;;;4996953;28;20045;-40
2022/11/15 10:53:30;;;;;;;8.30;4.72;;;23.60;85.80;;;;;;4995219;28;20045;-41
2022/11/15 10:56:00;;;;;;;7.43;4.47;;;23.70;82.20;;;;;;4995266;28;20075;-41
2022/11/15 10:58:39;;;;;;;6.90;4.13;;;24.20;80.70;;;;;;4996968;28;20117;-42
2022/11/15 11:01:16;;;;;;;5.67;3.60;;;24.90;78.60;;;;;;4996493;28;20111;-40
2022/11/15 11:03:43;;;;;;;8.32;3.63;;;25.60;76.90;;;;;;4996961;28;20022;-42
2022/11/15 11:06:17;;;;;;;7.55;3.78;;;25.40;75.00;;;;;;4992966;28;20496;-41
2022/11/15 11:08:58;;;;;;;5.65;3.72;;;25.90;71.40;;;;;;4989915;28;20037;-42
2022/11/15 11:11:24;;;;;;;4.82;3.45;;;26.00;70.90;;;;;;4985709;28;20061;-42
2022/11/15 11:13:50;;;;;;;5.45;3.55;;;26.40;71.50;;;;;;4989195;28;20622;-42
2022/11/15 11:17:00;;;;;;;4.05;3.50;;;27.00;69.20;;;;;;5005841;28;20041;-41
2022/11/15 11:19:37;;;;;;;;;;;26.90;68.80;;;;;;5056643;28;20046;-41
2022/11/15 11:22:15;;;;;;;6.85;3.95;;;26.40;69.00;;;;;;5005790;28;19963;-43
2022/11/15 11:25:05;;;;;;;4.57;3.22;;;25.90;69.50;;;;;;4993280;28;20478;-42
2022/11/15 11:27:42;;;;;;;5.07;3.15;;;26.30;70.40;;;;;;5003194;28;20155;-42
2022/11/15 11:30:28;;;;;;;4.28;3.42;;;26.20;69.80;;;;;;5003910;28;20057;-43
2022/11/15 11:33:00;;;;;;;4.97;3.42;;;25.90;69.40;;;;;;5004982;28;20034;-44
2022/11/15 11:35:53;;;;;;;5.78;3.58;;;26.10;69.60;;;;;;5003977;28;20403;-41
2022/11/15 11:38:43;;;;;;;7.85;3.70;;;26.20;68.60;;;;;;5005265;28;20030;-43
2022/11/15 11:41:35;;;;;;;;;;;26.30;66.30;;;;;;5004997;28;20045;-42
2022/11/15 11:44:21;;;;;;;3.72;3.15;;;25.60;67.70;;;;;;5041373;28;19974;-40
2022/11/15 11:47:09;;;;;;;5.18;3.28;;;25.40;68.00;;;;;;5003464;28;20175;-43
2022/11/15 11:49:52;;;;;;;3.53;3.13;;;25.10;67.20;;;;;;5004567;28;20049;-42
2022/11/15 11:52:28;;;;;;;3.65;2.95;;;24.50;70.80;;;;;;5004992;28;20444;-41
2022/11/15 11:55:11;;;;;;;3.90;2.88;;;24.20;70.50;;;;;;5006315;28;20032;-41
2022/11/15 11:57:55;;;;;;;6.22;2.92;;;23.50;71.50;;;;;;5005228;28;20048;-40
2022/11/15 12:00:28;;;;;;;3.65;3.08;;;22.60;74.20;;;;;;5006172;28;20455;-42
2022/11/15 12:03:18;;;;;;;3.63;3.10;;;21.50;77.80;;;;;;5004110;28;20026;-40
2022/11/15 12:05:46;;;;;;;;;;;20.80;78.80;;;;;;5006272;28;20094;-41
2022/11/15 12:08:52;;;;;;;4.97;3.85;;;19.50;81.60;;;;;;5006438;28;19929;-40
2022/11/15 12:11:44;;;;;;;8.35;3.70;;;18.60;85.30;;;;;;5004636;28;20045;-40
2022/11/15 12:14:20;;;;;;;7.47;3.85;;;18.30;87.70;;;;;;5022727;28;20030;-40
2022/11/15 12:16:46;;;;;;;5.55;3.80;;;17.80;89.40;;;;;;5005619;28;20030;-40
2022/11/15 12:19:12;;;;;;;6.15;3.55;;;17.50;90.20;;;;;;5004485;28;20110;-40
2022/11/15 12:21:47;;;;;;;4.45;2.92;;;17.40;90.70;;;;;;5005388;28;20019;-40
2022/11/15 12:24:19;;;;;;;6.00;3.28;;;17.30;91.30;;;;;;5005674;28;20045;-40
2022/11/15 12:27:02;;;;;;;5.88;3.72;;;17.20;91.50;;;;;;5002202;28;20018;-40
2022/11/15 12:29:48;;;;;;;4.88;4.05;;;16.90;92.00;;;;;;5005532;28;20444;-40
2022/11/15 12:32:32;;;;;;;7.47;3.40;;;16.80;92.60;;;;;;5004343;28;20026;-40
2022/11/15 12:35:00;;;;;;;6.35;3.60;;;16.70;93.70;;;;;;5006162;28;20105;-40
2022/11/15 12:37:37;;;;;;;5.45;3.85;;;16.70;93.80;;;;;;5005640;28;20061;-40
2022/11/15 12:40:09;;;;;;;5.47;3.47;;;16.60;93.50;;;;;;5004188;28;20499;-40
2022/11/15 12:42:56;;;;;;;6.28;4.53;;;16.50;94.20;;;;;;5005019;28;20547;-40
2022/11/15 12:45:38;;;;;;;8.07;4.45;;;16.50;94.70;;;;;;5003972;28;20041;-40
2022/11/15 12:48:16;;;;;;;6.85;4.80;;;16.40;94.80;;;;;;5005699;28;20026;-40
2022/11/15 12:50:53;;;;;;;9.63;4.25;;;16.30;95.60;;;;;;5004231;28;20029;-39
2022/11/15 12:53:25;;;;;;;6.03;3.58;;;16.40;96.20;;;;;;5004572;28;20018;-40
2022/11/15 12:56:03;;;;;;;4.50;3.50;;;16.30;96.20;;;;;;5006182;28;20090;-40
2022/11/15 12:58:47;;;;;;;5.25;3.50;;;16.30;96.80;;;;;;5004441;28;20395;-40
2022/11/15 13:01:37;;;;;;;5.13;3.92;;;16.20;98.30;;;;;;5005335;28;20030;-40
2022/11/15 13:04:24;;;;;;;8.30;4.15;;;16.20;98.90;;;;;;5004914;28;20030;-40
2022/11/15 13:06:51;;;;;;;5.82;3.97;;;16.20;99.90;;;;;;5004288;28;20029;-40
2022/11/15 13:09:32;;;;;;;6.55;4.20;;;16.10;99.90;;;;;;5004583;28;20078;-40
2022/11/15 13:12:01;;;;;;;;;;;16.00;99.90;;;;;;5002290;28;20357;-40
2022/11/15 13:14:56;;;;;;;8.43;4.68;;;16.00;99.90;;;;;;5003854;28;19906;-40
2022/11/15 13:17:24;;;;;;;4.97;3.53;;;15.90;99.90;;;;;;5006704;28;20040;-40